Time;durP1;ratioP1;P1;durP2;ratioP2;P2;SDS_P1;SDS_P2;PMS_P1;PMS_P2;Temp;Humidity;BMP_temperature;BMP_pressure;BME280_temperature;BME280_humidity;BME280_pressure;Samples;Min_cycle;Max_cycle;Signal;HPM_P1;HPM_P2
2023/06/06 00:01:54;;;;;;;15.15;9.55;;;;;;;;;;4989728;28;100424;-76
2023/06/06 00:04:20;;;;;;;10.20;8.35;;;;;;;;;;4989353;28;98522;-76
2023/06/06 00:06:47;;;;;;;12.77;9.30;;;;;;;;;;4984412;28;100335;-74
2023/06/06 00:09:14;;;;;;;15.75;9.43;;;;;;;;;;4987938;28;99418;-75
2023/06/06 00:11:40;;;;;;;10.00;8.95;;;;;;;;;;4988007;28;100295;-76
2023/06/06 00:14:07;;;;;;;12.65;9.02;;;;;;;;;;4984346;28;99281;-76
2023/06/06 00:16:34;;;;;;;15.23;8.98;;;;;;;;;;4984229;28;100667;-76
2023/06/06 00:19:01;;;;;;;10.70;8.00;;;;;;;;;;4987394;28;99393;-76
2023/06/06 00:21:28;;;;;;;11.48;8.65;;;;;;;;;;4991222;28;98963;-76
2023/06/06 00:23:55;;;;;;;11.75;7.93;;;;;;;;;;4988043;28;100070;-76
2023/06/06 00:26:21;;;;;;;11.52;8.70;;;;;;;;;;4991007;28;98407;-76
2023/06/06 00:28:48;;;;;;;15.00;9.23;;;;;;;;;;4993721;28;98809;-75
2023/06/06 00:31:14;;;;;;;12.63;9.02;;;;;;;;;;4982027;28;102261;-76
2023/06/06 00:33:41;;;;;;;10.68;9.60;;;;;;;;;;4989735;28;99949;-75
2023/06/06 00:36:07;;;;;;;13.27;9.45;;;;;;;;;;4981086;28;99630;-76
2023/06/06 00:38:34;;;;;;;15.57;8.88;;;;;;;;;;4988791;28;100216;-76
2023/06/06 00:41:01;;;;;;;16.75;9.65;;;;;;;;;;4984715;28;98892;-75
2023/06/06 00:43:28;;;;;;;14.35;9.98;;;;;;;;;;4995998;28;98930;-77
2023/06/06 00:45:55;;;;;;;9.38;8.10;;;;;;;;;;4999108;28;99779;-76
2023/06/06 00:48:23;;;;;;;9.02;7.80;;;;;;;;;;4994372;28;99237;-75
2023/06/06 00:50:50;;;;;;;9.60;8.73;;;;;;;;;;4993170;28;98815;-76
2023/06/06 00:53:16;;;;;;;14.07;9.32;;;;;;;;;;4982993;28;99102;-75
2023/06/06 00:55:43;;;;;;;12.30;9.75;;;;;;;;;;4986152;28;101773;-75
2023/06/06 00:58:11;;;;;;;12.13;9.18;;;;;;;;;;4991415;28;102433;-75
2023/06/06 01:00:39;;;;;;;13.48;9.73;;;;;;;;;;4996482;28;99045;-76
2023/06/06 01:03:09;;;;;;;15.40;9.30;;;;;;;;;;4988553;28;99610;-76
2023/06/06 01:05:37;;;;;;;13.25;9.80;;;;;;;;;;4982552;28;101736;-76
2023/06/06 01:08:04;;;;;;;18.50;9.77;;;;;;;;;;4985055;28;99924;-76
2023/06/06 01:10:34;;;;;;;15.55;9.80;;;;;;;;;;5000489;28;98884;-75
2023/06/06 01:13:06;;;;;;;11.40;10.05;;;;;;;;;;4983271;28;99831;-74
2023/06/06 01:15:45;;;;;;;18.10;10.00;;;;;;;;;;4982891;28;101974;-76
2023/06/06 01:18:12;;;;;;;16.08;9.52;;;;;;;;;;4982889;28;100144;-76
2023/06/06 01:20:40;;;;;;;16.17;10.15;;;;;;;;;;4981758;28;98874;-76
2023/06/06 01:23:07;;;;;;;13.75;9.32;;;;;;;;;;4992057;28;99320;-75
2023/06/06 01:25:35;;;;;;;12.43;9.05;;;;;;;;;;4993398;28;99211;-76
2023/06/06 01:28:04;;;;;;;12.40;9.77;;;;;;;;;;4992317;28;98976;-75
2023/06/06 01:30:33;;;;;;;11.52;9.48;;;;;;;;;;4996460;28;101253;-76
2023/06/06 01:33:30;;;;;;;14.63;10.20;;;;;;;;;;4994901;28;100537;-76
2023/06/06 01:36:15;;;;;;;13.50;9.57;;;;;;;;;;4994224;28;98814;-77
2023/06/06 01:38:47;;;;;;;15.35;9.05;;;;;;;;;;4994764;28;98466;-77
2023/06/06 01:41:16;;;;;;;14.43;9.85;;;;;;;;;;4991215;28;98915;-76
2023/06/06 01:43:45;;;;;;;13.40;10.13;;;;;;;;;;4982342;28;98400;-77
2023/06/06 01:46:12;;;;;;;14.82;9.70;;;;;;;;;;4989894;28;99125;-76
2023/06/06 01:48:39;;;;;;;14.82;9.77;;;;;;;;;;4993320;28;99241;-75
2023/06/06 01:51:05;;;;;;;11.32;10.18;;;;;;;;;;4985246;28;99724;-78
2023/06/06 01:53:32;;;;;;;14.00;10.52;;;;;;;;;;4984320;28;102277;-76
2023/06/06 01:56:00;;;;;;;15.00;9.73;;;;;;;;;;4994271;28;98945;-76
2023/06/06 01:58:26;;;;;;;15.45;9.80;;;;;;;;;;4993248;28;101669;-76
2023/06/06 02:00:53;;;;;;;15.25;9.57;;;;;;;;;;4994379;28;98779;-77
2023/06/06 02:03:20;;;;;;;13.20;10.45;;;;;;;;;;4985249;28;98675;-76
2023/06/06 02:05:47;;;;;;;14.80;10.57;;;;;;;;;;4991644;28;98656;-75
2023/06/06 02:08:13;;;;;;;12.77;9.70;;;;;;;;;;4986378;28;98975;-76
2023/06/06 02:10:40;;;;;;;11.10;9.73;;;;;;;;;;4993007;28;99689;-76
2023/06/06 02:13:06;;;;;;;11.55;9.40;;;;;;;;;;4993017;28;100154;-76
2023/06/06 02:15:33;;;;;;;13.73;10.25;;;;;;;;;;4994803;28;98904;-76
2023/06/06 02:18:03;;;;;;;12.07;9.63;;;;;;;;;;4998328;28;101331;-77
2023/06/06 02:20:29;;;;;;;16.00;10.02;;;;;;;;;;4997099;28;99141;-77
2023/06/06 02:22:56;;;;;;;13.35;10.18;;;;;;;;;;4986615;28;99271;-77
2023/06/06 02:25:23;;;;;;;11.15;9.98;;;;;;;;;;4997789;28;98616;-76
2023/06/06 02:27:50;;;;;;;14.95;10.55;;;;;;;;;;4997286;28;100036;-76
2023/06/06 02:30:17;;;;;;;12.50;9.48;;;;;;;;;;4988446;28;98088;-77
2023/06/06 02:32:46;;;;;;;12.27;9.98;;;;;;;;;;4990343;28;101779;-76
2023/06/06 02:35:14;;;;;;;14.02;9.27;;;;;;;;;;4994570;28;99776;-76
2023/06/06 02:37:41;;;;;;;12.63;10.18;;;;;;;;;;4991768;28;100062;-76
2023/06/06 02:40:11;;;;;;;14.07;10.07;;;;;;;;;;4997975;28;98994;-76
2023/06/06 02:42:40;;;;;;;18.95;10.82;;;;;;;;;;4989710;28;101607;-76
2023/06/06 02:45:08;;;;;;;17.90;10.48;;;;;;;;;;4978540;28;101865;-76
2023/06/06 02:47:35;;;;;;;12.15;9.23;;;;;;;;;;4988009;28;98892;-76
2023/06/06 02:50:02;;;;;;;14.60;9.93;;;;;;;;;;4989294;28;100918;-76
2023/06/06 02:52:31;;;;;;;16.52;10.35;;;;;;;;;;4983378;28;102583;-75
2023/06/06 02:54:58;;;;;;;15.05;9.75;;;;;;;;;;4991999;28;98334;-75
2023/06/06 02:57:25;;;;;;;13.95;9.32;;;;;;;;;;4989821;28;101231;-77
2023/06/06 02:59:52;;;;;;;17.45;10.05;;;;;;;;;;4995068;28;99186;-76
2023/06/06 03:02:19;;;;;;;12.68;10.10;;;;;;;;;;4985282;28;99648;-76
2023/06/06 03:04:46;;;;;;;15.10;9.90;;;;;;;;;;4979965;28;102035;-75
2023/06/06 03:07:12;;;;;;;15.15;10.15;;;;;;;;;;4983297;28;100136;-77
2023/06/06 03:09:39;;;;;;;13.75;9.98;;;;;;;;;;4990115;28;100101;-75
2023/06/06 03:12:11;;;;;;;17.85;10.13;;;;;;;;;;4987505;28;100760;-76
2023/06/06 03:14:38;;;;;;;13.38;10.18;;;;;;;;;;4998972;28;98632;-76
2023/06/06 03:17:22;;;;;;;13.88;9.55;;;;;;;;;;4997361;28;99423;-78
2023/06/06 03:19:48;;;;;;;14.85;9.13;;;;;;;;;;4997009;28;99212;-75
2023/06/06 03:22:16;;;;;;;13.50;9.45;;;;;;;;;;4993393;28;99880;-76
2023/06/06 03:24:45;;;;;;;16.33;9.93;;;;;;;;;;4990518;28;101021;-75
2023/06/06 03:27:13;;;;;;;9.23;8.00;;;;;;;;;;4985883;28;100724;-76
2023/06/06 03:29:40;;;;;;;12.93;8.50;;;;;;;;;;5001703;28;102527;-77
2023/06/06 03:32:07;;;;;;;16.02;9.63;;;;;;;;;;4981721;28;101431;-75
2023/06/06 03:34:34;;;;;;;13.70;9.15;;;;;;;;;;4989410;28;98874;-76
2023/06/06 03:37:01;;;;;;;12.32;8.55;;;;;;;;;;4987844;28;101695;-75
2023/06/06 03:39:27;;;;;;;10.45;8.82;;;;;;;;;;4991924;28;98575;-77
2023/06/06 03:41:56;;;;;;;9.77;8.75;;;;;;;;;;4982655;28;99761;-75
2023/06/06 03:44:22;;;;;;;10.68;8.63;;;;;;;;;;4992751;28;100707;-77
2023/06/06 03:46:49;;;;;;;10.65;9.05;;;;;;;;;;4985895;28;99743;-76
2023/06/06 03:49:16;;;;;;;13.32;8.77;;;;;;;;;;4987404;28;99823;-76
2023/06/06 03:51:43;;;;;;;10.13;8.63;;;;;;;;;;4982924;28;100319;-76
2023/06/06 03:54:11;;;;;;;13.68;8.60;;;;;;;;;;4988629;28;99947;-76
2023/06/06 03:56:40;;;;;;;12.70;8.48;;;;;;;;;;4990282;28;101630;-77
2023/06/06 03:59:11;;;;;;;10.25;7.97;;;;;;;;;;4982376;28;99329;-76
2023/06/06 04:01:38;;;;;;;12.13;9.73;;;;;;;;;;4985239;28;101951;-75
2023/06/06 04:04:08;;;;;;;12.07;8.25;;;;;;;;;;4983106;28;102455;-76
2023/06/06 04:06:37;;;;;;;13.52;8.82;;;;;;;;;;4995752;28;99679;-76
2023/06/06 04:09:08;;;;;;;12.15;7.63;;;;;;;;;;4988756;28;99201;-77
2023/06/06 04:11:35;;;;;;;10.63;7.85;;;;;;;;;;4989022;28;102221;-77
2023/06/06 04:14:02;;;;;;;18.95;9.25;;;;;;;;;;4975827;28;101740;-78
2023/06/06 04:16:28;;;;;;;14.70;8.68;;;;;;;;;;4983656;28;101578;-75
2023/06/06 04:18:55;;;;;;;11.77;7.82;;;;;;;;;;4983239;28;99198;-76
2023/06/06 04:21:21;;;;;;;12.52;8.32;;;;;;;;;;4982829;28;98947;-76
2023/06/06 04:23:48;;;;;;;12.38;7.93;;;;;;;;;;4990522;28;100017;-76
2023/06/06 04:26:24;;;;;;;11.88;8.45;;;;;;;;;;4993678;28;99784;-77
2023/06/06 04:28:58;;;;;;;11.80;6.88;;;;;;;;;;4997374;28;98880;-76
2023/06/06 04:31:26;;;;;;;11.18;8.35;;;;;;;;;;4998191;28;101526;-76
2023/06/06 04:33:54;;;;;;;12.57;8.30;;;;;;;;;;4982171;28;98798;-76
2023/06/06 04:36:25;;;;;;;12.77;8.33;;;;;;;;;;4988216;28;101078;-74
2023/06/06 04:38:58;;;;;;;13.32;8.45;;;;;;;;;;4988722;28;99380;-77
2023/06/06 04:41:25;;;;;;;12.40;7.95;;;;;;;;;;4985661;28;99871;-76
2023/06/06 04:44:12;;;;;;;10.85;8.00;;;;;;;;;;4984438;28;99489;-76
2023/06/06 04:46:43;;;;;;;9.20;7.22;;;;;;;;;;4989583;28;100405;-77
2023/06/06 04:49:10;;;;;;;12.50;8.75;;;;;;;;;;4981349;28;101175;-77
2023/06/06 04:51:37;;;;;;;12.95;7.85;;;;;;;;;;4991829;28;98948;-76
2023/06/06 04:54:08;;;;;;;8.77;7.88;;;;;;;;;;4984792;28;100316;-77
2023/06/06 04:56:34;;;;;;;9.52;6.00;;;;;;;;;;4989361;28;100060;-76
2023/06/06 04:59:05;;;;;;;14.27;8.02;;;;;;;;;;4975196;28;98684;-76
2023/06/06 05:01:36;;;;;;;17.55;9.20;;;;;;;;;;4985204;28;100244;-77
2023/06/06 05:04:03;;;;;;;12.20;8.07;;;;;;;;;;4981285;28;99252;-76
2023/06/06 05:06:31;;;;;;;12.73;8.00;;;;;;;;;;4986451;28;100060;-76
2023/06/06 05:09:00;;;;;;;13.27;8.18;;;;;;;;;;4983425;28;100329;-77
2023/06/06 05:11:27;;;;;;;12.85;8.13;;;;;;;;;;4984136;28;99053;-75
2023/06/06 05:13:53;;;;;;;12.82;8.38;;;;;;;;;;4983320;28;100217;-77
2023/06/06 05:16:20;;;;;;;14.57;7.82;;;;;;;;;;4987705;28;100544;-77
2023/06/06 05:18:46;;;;;;;16.00;7.72;;;;;;;;;;4977914;28;99207;-77
2023/06/06 05:21:13;;;;;;;15.50;8.52;;;;;;;;;;4986423;28;100251;-76
2023/06/06 05:23:40;;;;;;;16.50;7.95;;;;;;;;;;4990237;28;99035;-78
2023/06/06 05:26:06;;;;;;;14.52;8.20;;;;;;;;;;4990029;28;100239;-77
2023/06/06 05:28:33;;;;;;;19.75;8.25;;;;;;;;;;4992662;28;99034;-77
2023/06/06 05:31:00;;;;;;;12.93;7.53;;;;;;;;;;4988947;28;100445;-74
2023/06/06 05:33:26;;;;;;;10.90;7.07;;;;;;;;;;4990067;28;99400;-77
2023/06/06 05:35:53;;;;;;;10.32;7.82;;;;;;;;;;4988820;28;99031;-77
2023/06/06 05:38:20;;;;;;;17.60;8.15;;;;;;;;;;4993197;28;101066;-76
2023/06/06 05:40:46;;;;;;;11.23;7.68;;;;;;;;;;4987661;28;100228;-76
2023/06/06 05:43:13;;;;;;;11.90;7.63;;;;;;;;;;4989906;28;100024;-77
2023/06/06 05:45:40;;;;;;;8.77;7.03;;;;;;;;;;4995198;28;99301;-76
2023/06/06 05:48:10;;;;;;;12.63;7.43;;;;;;;;;;4995160;28;99293;-77
2023/06/06 05:50:37;;;;;;;11.75;7.45;;;;;;;;;;4992008;28;98428;-76
2023/06/06 05:53:03;;;;;;;12.77;7.93;;;;;;;;;;4988068;28;101662;-77
2023/06/06 05:55:31;;;;;;;10.88;7.13;;;;;;;;;;4987696;28;100064;-77
2023/06/06 05:57:58;;;;;;;10.95;7.53;;;;;;;;;;4982892;28;99482;-76
2023/06/06 06:00:25;;;;;;;13.60;7.10;;;;;;;;;;4989870;28;99930;-76
2023/06/06 06:02:53;;;;;;;11.30;6.38;;;;;;;;;;4986204;28;100016;-77
2023/06/06 06:05:19;;;;;;;11.07;6.40;;;;;;;;;;4989744;28;100594;-77
2023/06/06 06:07:49;;;;;;;12.48;7.00;;;;;;;;;;4988681;28;99802;-77
2023/06/06 06:10:16;;;;;;;7.68;6.85;;;;;;;;;;4990340;28;100643;-75
2023/06/06 06:12:42;;;;;;;11.65;7.15;;;;;;;;;;4981404;28;99910;-75
2023/06/06 06:15:10;;;;;;;11.40;6.60;;;;;;;;;;4980885;28;99327;-76
2023/06/06 06:17:36;;;;;;;9.70;6.65;;;;;;;;;;4992580;28;100218;-78
2023/06/06 06:20:08;;;;;;;12.57;7.00;;;;;;;;;;4990302;28;99882;-76
2023/06/06 06:22:35;;;;;;;12.43;6.03;;;;;;;;;;4988308;28;100734;-76
2023/06/06 06:25:05;;;;;;;10.68;6.60;;;;;;;;;;4990975;28;100672;-76
2023/06/06 06:27:31;;;;;;;15.77;6.55;;;;;;;;;;4983447;28;99906;-76
2023/06/06 06:30:01;;;;;;;9.32;5.80;;;;;;;;;;4988912;28;98949;-77
2023/06/06 06:32:27;;;;;;;9.73;6.35;;;;;;;;;;4993894;28;100084;-77
2023/06/06 06:34:55;;;;;;;12.88;6.20;;;;;;;;;;4991086;28;99770;-78
2023/06/06 06:37:21;;;;;;;11.45;6.68;;;;;;;;;;4988144;28;99897;-77
2023/06/06 06:39:49;;;;;;;8.00;5.93;;;;;;;;;;4990553;28;100270;-78
2023/06/06 06:42:15;;;;;;;7.55;5.20;;;;;;;;;;4984157;28;102424;-77
2023/06/06 06:44:54;;;;;;;10.48;5.32;;;;;;;;;;4978924;28;100979;-76
2023/06/06 06:47:21;;;;;;;6.00;5.35;;;;;;;;;;4981277;28;100050;-78
2023/06/06 06:49:48;;;;;;;9.70;5.45;;;;;;;;;;4988565;28;99795;-76
2023/06/06 06:52:17;;;;;;;13.75;5.03;;;;;;;;;;4987380;28;99414;-77
2023/06/06 06:54:54;;;;;;;9.18;5.55;;;;;;;;;;4987799;28;100013;-77
2023/06/06 06:57:21;;;;;;;6.63;4.85;;;;;;;;;;4987641;28;99999;-77
2023/06/06 06:59:48;;;;;;;15.48;5.40;;;;;;;;;;4988327;28;99303;-77
2023/06/06 07:02:15;;;;;;;9.60;5.32;;;;;;;;;;4991264;28;100278;-77
2023/06/06 07:04:42;;;;;;;6.70;5.38;;;;;;;;;;4988978;28;99640;-77
2023/06/06 07:07:13;;;;;;;8.15;5.13;;;;;;;;;;4981455;28;100125;-76
2023/06/06 07:09:39;;;;;;;8.07;5.00;;;;;;;;;;4991673;28;99150;-76
2023/06/06 07:12:07;;;;;;;9.90;5.15;;;;;;;;;;4986972;28;99464;-76
2023/06/06 07:14:35;;;;;;;6.88;4.78;;;;;;;;;;4989820;28;100386;-76
2023/06/06 07:17:01;;;;;;;7.97;5.47;;;;;;;;;;4984400;28;98646;-76
2023/06/06 07:19:28;;;;;;;10.43;4.75;;;;;;;;;;4993147;28;99551;-78
2023/06/06 07:21:56;;;;;;;7.80;4.47;;;;;;;;;;4984911;28;99899;-76
2023/06/06 07:24:23;;;;;;;7.00;4.70;;;;;;;;;;4991976;28;100020;-76
2023/06/06 07:26:51;;;;;;;8.63;5.07;;;;;;;;;;4988861;28;100017;-77
2023/06/06 07:29:18;;;;;;;9.15;4.53;;;;;;;;;;4988971;28;99127;-76
2023/06/06 07:31:44;;;;;;;6.38;4.78;;;;;;;;;;4979704;28;100512;-75
2023/06/06 07:34:11;;;;;;;10.63;5.25;;;;;;;;;;4985475;28;99226;-77
2023/06/06 07:36:37;;;;;;;15.40;5.38;;;;;;;;;;4986657;28;100766;-78
2023/06/06 07:39:06;;;;;;;6.25;5.00;;;;;;;;;;4985148;28;100369;-77
2023/06/06 07:41:33;;;;;;;8.23;4.75;;;;;;;;;;4985662;28;99222;-77
2023/06/06 07:44:01;;;;;;;9.32;5.18;;;;;;;;;;4990824;28;100612;-77
2023/06/06 07:46:27;;;;;;;5.47;4.93;;;;;;;;;;4978244;28;98968;-77
2023/06/06 07:48:54;;;;;;;10.50;5.10;;;;;;;;;;4985710;28;100165;-80
2023/06/06 07:51:21;;;;;;;6.55;4.40;;;;;;;;;;4987562;28;99552;-78
2023/06/06 07:53:47;;;;;;;8.07;4.72;;;;;;;;;;4987349;28;100270;-76
2023/06/06 07:56:14;;;;;;;10.82;5.13;;;;;;;;;;4986728;28;99917;-77
2023/06/06 07:58:41;;;;;;;5.80;5.20;;;;;;;;;;4986456;28;100194;-77
2023/06/06 08:01:09;;;;;;;7.05;4.93;;;;;;;;;;4982690;28;100142;-77
2023/06/06 08:03:36;;;;;;;8.75;5.30;;;;;;;;;;4986118;28;99944;-77
2023/06/06 08:06:02;;;;;;;7.72;5.47;;;;;;;;;;4989855;28;100354;-78
2023/06/06 08:08:29;;;;;;;7.60;4.95;;;;;;;;;;4984556;28;101219;-76
2023/06/06 08:10:55;;;;;;;11.35;5.35;;;;;;;;;;4987358;28;100353;-77
2023/06/06 08:13:22;;;;;;;11.32;5.68;;;;;;;;;;4983042;28;100371;-74
2023/06/06 08:15:48;;;;;;;8.80;5.00;;;;;;;;;;4987504;28;98875;-76
2023/06/06 08:18:15;;;;;;;14.55;6.45;;;;;;;;;;4984338;28;100337;-76
2023/06/06 08:20:41;;;;;;;12.85;5.32;;;;;;;;;;4978139;28;99979;-76
2023/06/06 08:23:08;;;;;;;12.35;4.78;;;;;;;;;;4986330;28;99370;-76
2023/06/06 08:25:37;;;;;;;8.27;4.60;;;;;;;;;;4985082;28;99285;-74
2023/06/06 08:28:04;;;;;;;6.18;4.97;;;;;;;;;;4988958;28;98967;-76
2023/06/06 08:30:31;;;;;;;8.60;4.90;;;;;;;;;;4985536;28;99461;-75
2023/06/06 08:32:57;;;;;;;8.45;5.05;;;;;;;;;;4985206;28;100197;-75
2023/06/06 08:35:24;;;;;;;6.75;5.00;;;;;;;;;;4978540;28;102140;-76
2023/06/06 08:37:52;;;;;;;9.68;5.07;;;;;;;;;;4986158;28;100935;-76
2023/06/06 08:40:18;;;;;;;7.97;5.22;;;;;;;;;;4986698;28;99843;-77
2023/06/06 08:42:48;;;;;;;9.15;5.38;;;;;;;;;;4985493;28;99803;-74
2023/06/06 08:45:18;;;;;;;7.97;5.57;;;;;;;;;;4984761;28;101310;-75
2023/06/06 08:47:45;;;;;;;8.27;4.95;;;;;;;;;;4982241;28;99334;-76
2023/06/06 08:50:12;;;;;;;8.95;5.63;;;;;;;;;;4973777;28;100190;-76
2023/06/06 08:52:40;;;;;;;14.73;5.72;;;;;;;;;;4981406;28;100060;-76
2023/06/06 08:55:08;;;;;;;6.15;4.88;;;;;;;;;;4985694;28;100427;-77
2023/06/06 08:57:41;;;;;;;6.85;5.05;;;;;;;;;;4985958;28;99375;-76
2023/06/06 09:00:18;;;;;;;14.25;5.13;;;;;;;;;;4979464;28;100092;-76
2023/06/06 09:02:46;;;;;;;9.10;5.13;;;;;;;;;;4986649;28;99981;-76
2023/06/06 09:05:14;;;;;;;9.02;4.75;;;;;;;;;;4987133;28;99351;-76
2023/06/06 09:07:40;;;;;;;8.38;4.97;;;;;;;;;;4991980;28;98548;-77
2023/06/06 09:10:07;;;;;;;8.93;5.25;;;;;;;;;;4989988;28;99889;-76
2023/06/06 09:12:41;;;;;;;9.23;5.57;;;;;;;;;;4992603;28;101223;-77
2023/06/06 09:15:07;;;;;;;9.00;5.38;;;;;;;;;;4990096;28;99914;-77
2023/06/06 09:17:35;;;;;;;16.88;5.40;;;;;;;;;;4981774;28;99788;-78
2023/06/06 09:20:08;;;;;;;9.60;5.18;;;;;;;;;;4989161;28;100252;-76
2023/06/06 09:22:45;;;;;;;7.70;5.07;;;;;;;;;;4989975;28;98943;-75
2023/06/06 09:25:23;;;;;;;11.10;4.40;;;;;;;;;;4988846;28;99359;-76
2023/06/06 09:27:56;;;;;;;8.25;5.15;;;;;;;;;;4989344;28;98877;-76
2023/06/06 09:30:23;;;;;;;7.47;4.78;;;;;;;;;;4982594;28;99172;-75
2023/06/06 09:32:56;;;;;;;5.93;4.88;;;;;;;;;;4978824;28;100712;-76
2023/06/06 09:35:25;;;;;;;9.02;5.22;;;;;;;;;;4984966;28;98496;-77
2023/06/06 09:37:51;;;;;;;8.98;4.97;;;;;;;;;;4989023;28;100757;-76
2023/06/06 09:40:18;;;;;;;8.65;4.90;;;;;;;;;;4987736;28;100158;-76
2023/06/06 09:42:46;;;;;;;7.45;5.15;;;;;;;;;;4988081;28;100393;-77
2023/06/06 09:45:12;;;;;;;8.05;5.30;;;;;;;;;;4988465;28;100845;-77
2023/06/06 09:47:42;;;;;;;13.20;5.30;;;;;;;;;;4988205;28;99167;-76
2023/06/06 09:50:13;;;;;;;10.52;4.78;;;;;;;;;;4988021;28;100018;-76
2023/06/06 09:52:41;;;;;;;9.95;5.57;;;;;;;;;;4987936;28;100359;-75
2023/06/06 09:55:08;;;;;;;12.27;5.40;;;;;;;;;;4991579;28;100331;-76
2023/06/06 09:57:36;;;;;;;7.18;4.85;;;;;;;;;;4988785;28;100432;-77
2023/06/06 10:00:07;;;;;;;10.40;5.47;;;;;;;;;;4985086;28;98874;-78
2023/06/06 10:02:47;;;;;;;8.40;6.00;;;;;;;;;;4978927;28;99180;-77
2023/06/06 10:05:23;;;;;;;11.30;5.22;;;;;;;;;;4987005;28;101343;-77
2023/06/06 10:07:50;;;;;;;8.45;6.03;;;;;;;;;;4987711;28;99267;-76
2023/06/06 10:10:17;;;;;;;9.77;6.15;;;;;;;;;;4986477;28;99535;-76
2023/06/06 10:12:44;;;;;;;9.82;5.43;;;;;;;;;;4987927;28;100081;-77
2023/06/06 10:15:11;;;;;;;10.13;6.03;;;;;;;;;;4984969;28;99909;-75
2023/06/06 10:17:42;;;;;;;9.02;5.47;;;;;;;;;;4981691;28;99346;-74
2023/06/06 10:20:11;;;;;;;11.23;5.80;;;;;;;;;;4984397;28;98150;-75
2023/06/06 10:22:41;;;;;;;6.75;4.53;;;;;;;;;;4985712;28;100045;-74
2023/06/06 10:25:12;;;;;;;9.20;5.60;;;;;;;;;;4985905;28;100449;-75
2023/06/06 10:27:51;;;;;;;7.37;5.70;;;;;;;;;;4983042;28;100366;-75
2023/06/06 10:30:22;;;;;;;10.27;6.03;;;;;;;;;;4985729;28;100809;-74
2023/06/06 10:33:13;;;;;;;8.55;5.88;;;;;;;;;;4985625;28;100158;-74
2023/06/06 10:35:42;;;;;;;9.38;6.10;;;;;;;;;;4954576;28;98950;-74
2023/06/06 10:38:09;;;;;;;11.95;6.53;;;;;;;;;;4987559;28;99031;-76
2023/06/06 10:41:02;;;;;;;9.32;6.05;;;;;;;;;;4989850;28;100497;-76
2023/06/06 10:43:32;;;;;;;7.43;4.85;;;;;;;;;;4979329;28;99360;-75
2023/06/06 10:46:03;;;;;;;13.80;6.03;;;;;;;;;;4986533;28;99916;-74
2023/06/06 10:48:39;;;;;;;13.65;6.45;;;;;;;;;;4987106;28;99948;-75
2023/06/06 10:51:24;;;;;;;12.68;6.07;;;;;;;;;;4976986;28;100507;-76
2023/06/06 10:54:09;;;;;;;14.30;5.30;;;;;;;;;;4982831;28;100714;-76
2023/06/06 10:56:42;;;;;;;9.25;6.30;;;;;;;;;;4985161;28;100015;-76
2023/06/06 10:59:09;;;;;;;12.00;5.70;;;;;;;;;;4984910;28;98736;-73
2023/06/06 11:01:36;;;;;;;8.98;5.43;;;;;;;;;;4980199;28;100104;-75
2023/06/06 11:04:15;;;;;;;10.57;5.22;;;;;;;;;;4988585;28;98579;-75
2023/06/06 11:06:42;;;;;;;11.00;6.13;;;;;;;;;;4988191;28;100175;-74
2023/06/06 11:09:17;;;;;;;10.75;5.20;;;;;;;;;;4976406;28;99907;-76
2023/06/06 11:11:44;;;;;;;12.45;5.80;;;;;;;;;;4983871;28;99179;-78
2023/06/06 11:14:10;;;;;;;9.23;5.65;;;;;;;;;;4989745;28;99457;-77
2023/06/06 11:16:39;;;;;;;10.57;5.63;;;;;;;;;;4991566;28;99985;-78
2023/06/06 11:19:09;;;;;;;8.55;4.78;;;;;;;;;;4995419;28;100953;-75
2023/06/06 11:21:36;;;;;;;10.15;5.78;;;;;;;;;;4995378;28;99394;-77
2023/06/06 11:24:03;;;;;;;10.38;6.25;;;;;;;;;;4986560;28;99970;-76
2023/06/06 11:26:32;;;;;;;11.23;7.13;;;;;;;;;;4985061;28;99558;-74
2023/06/06 11:28:59;;;;;;;8.80;5.32;;;;;;;;;;4984506;28;99026;-76
2023/06/06 11:31:26;;;;;;;8.57;5.43;;;;;;;;;;4986125;28;99352;-75
2023/06/06 11:34:02;;;;;;;8.27;5.30;;;;;;;;;;4982647;28;99529;-73
2023/06/06 11:36:29;;;;;;;9.27;4.78;;;;;;;;;;4985661;28;99981;-74
2023/06/06 11:38:59;;;;;;;6.57;4.93;;;;;;;;;;4985047;28;99339;-76
2023/06/06 11:41:27;;;;;;;12.82;5.20;;;;;;;;;;4985814;28;100286;-74
2023/06/06 11:43:54;;;;;;;10.57;5.07;;;;;;;;;;4983797;28;99654;-76
2023/06/06 11:46:20;;;;;;;7.95;5.15;;;;;;;;;;4989533;28;100729;-76
2023/06/06 11:48:55;;;;;;;12.15;5.05;;;;;;;;;;4982168;28;98894;-75
2023/06/06 11:51:25;;;;;;;6.68;4.47;;;;;;;;;;4976525;28;99429;-74
2023/06/06 11:53:51;;;;;;;8.07;5.05;;;;;;;;;;4983173;28;99498;-75
2023/06/06 11:56:19;;;;;;;8.45;5.35;;;;;;;;;;4984989;28;99003;-75
2023/06/06 11:58:46;;;;;;;10.38;5.40;;;;;;;;;;4982378;28;98875;-76
2023/06/06 12:01:15;;;;;;;5.78;5.13;;;;;;;;;;4985408;28;99683;-74
2023/06/06 12:03:42;;;;;;;7.28;5.03;;;;;;;;;;4986273;28;98803;-76
2023/06/06 12:06:10;;;;;;;7.95;5.22;;;;;;;;;;4984768;28;98928;-76
2023/06/06 12:08:37;;;;;;;11.07;5.28;;;;;;;;;;4989259;28;101252;-76
2023/06/06 12:11:24;;;;;;;6.63;4.55;;;;;;;;;;4986224;28;99733;-79
2023/06/06 12:13:51;;;;;;;7.10;4.25;;;;;;;;;;4973272;28;100897;-77
2023/06/06 12:16:21;;;;;;;8.65;5.75;;;;;;;;;;4983309;28;98795;-79
2023/06/06 12:18:48;;;;;;;5.25;4.43;;;;;;;;;;4983553;28;99951;-76
2023/06/06 12:21:17;;;;;;;9.13;5.18;;;;;;;;;;4985739;28;99653;-79
2023/06/06 12:23:44;;;;;;;8.43;4.70;;;;;;;;;;4984688;28;99981;-77
2023/06/06 12:26:11;;;;;;;10.10;5.00;;;;;;;;;;4988268;28;99853;-78
2023/06/06 12:28:57;;;;;;;8.07;4.90;;;;;;;;;;4986418;28;100373;-76
2023/06/06 12:31:25;;;;;;;6.45;4.20;;;;;;;;;;4988272;28;99683;-74
2023/06/06 12:33:53;;;;;;;8.18;4.60;;;;;;;;;;4977892;28;101334;-76
2023/06/06 12:36:24;;;;;;;6.05;4.22;;;;;;;;;;4985125;28;100493;-76
2023/06/06 12:38:53;;;;;;;10.77;4.75;;;;;;;;;;4980310;28;99813;-74
2023/06/06 12:41:21;;;;;;;7.35;5.03;;;;;;;;;;4984570;28;100073;-75
2023/06/06 12:43:48;;;;;;;10.02;5.05;;;;;;;;;;4984929;28;99986;-76
2023/06/06 12:46:15;;;;;;;15.40;4.88;;;;;;;;;;4977889;28;101309;-76
2023/06/06 12:48:41;;;;;;;14.75;5.38;;;;;;;;;;4983005;28;99190;-76
2023/06/06 12:51:10;;;;;;;8.55;4.65;;;;;;;;;;4981752;28;99131;-76
2023/06/06 12:53:37;;;;;;;7.65;4.85;;;;;;;;;;4988447;28;99290;-76
2023/06/06 12:56:04;;;;;;;9.50;4.50;;;;;;;;;;4981846;28;99993;-76
2023/06/06 12:58:32;;;;;;;8.32;4.85;;;;;;;;;;4979604;28;99823;-75
2023/06/06 13:00:58;;;;;;;9.45;5.47;;;;;;;;;;4985210;28;100227;-76
2023/06/06 13:03:25;;;;;;;9.68;5.53;;;;;;;;;;4988904;28;99537;-76
2023/06/06 13:05:53;;;;;;;12.93;5.82;;;;;;;;;;4985649;28;99197;-76
2023/06/06 13:08:19;;;;;;;10.25;5.30;;;;;;;;;;4986142;28;99857;-76
2023/06/06 13:11:02;;;;;;;13.38;5.30;;;;;;;;;;4984269;28;99390;-75
2023/06/06 13:13:29;;;;;;;8.75;4.88;;;;;;;;;;4986010;28;99298;-77
2023/06/06 13:15:55;;;;;;;11.38;4.97;;;;;;;;;;4988633;28;98766;-77
2023/06/06 13:18:22;;;;;;;9.23;4.82;;;;;;;;;;4983979;28;99859;-76
2023/06/06 13:20:50;;;;;;;8.98;5.32;;;;;;;;;;4977928;28;100181;-76
2023/06/06 13:23:17;;;;;;;11.02;5.15;;;;;;;;;;4977671;28;99304;-76
2023/06/06 13:25:43;;;;;;;16.60;4.97;;;;;;;;;;4981298;28;100287;-76
2023/06/06 13:28:10;;;;;;;15.30;5.38;;;;;;;;;;4977528;28;99631;-77
2023/06/06 13:30:36;;;;;;;10.55;5.22;;;;;;;;;;4981610;28;99788;-78
2023/06/06 13:33:03;;;;;;;12.48;5.40;;;;;;;;;;4982008;28;100304;-76
2023/06/06 13:35:29;;;;;;;11.52;5.13;;;;;;;;;;4982173;28;100163;-76
2023/06/06 13:37:56;;;;;;;11.50;4.90;;;;;;;;;;4983838;28;99907;-76
2023/06/06 13:40:23;;;;;;;14.88;5.43;;;;;;;;;;4975219;28;99669;-77
2023/06/06 13:42:49;;;;;;;11.48;5.50;;;;;;;;;;4980378;28;99618;-78
2023/06/06 13:45:16;;;;;;;16.08;5.55;;;;;;;;;;4978716;28;99953;-77
2023/06/06 13:47:42;;;;;;;13.05;5.47;;;;;;;;;;4978966;28;101107;-77
2023/06/06 13:50:10;;;;;;;8.80;4.90;;;;;;;;;;4983892;28;100110;-77
2023/06/06 13:52:39;;;;;;;8.23;5.13;;;;;;;;;;4987607;28;100496;-77
2023/06/06 13:55:06;;;;;;;14.48;5.50;;;;;;;;;;4992903;28;100720;-77
2023/06/06 13:57:39;;;;;;;10.68;5.63;;;;;;;;;;4992892;28;99890;-76
2023/06/06 14:00:08;;;;;;;12.88;5.30;;;;;;;;;;4987638;28;99338;-78
2023/06/06 14:02:35;;;;;;;13.77;6.32;;;;;;;;;;4984394;28;99853;-77
2023/06/06 14:05:02;;;;;;;11.65;5.63;;;;;;;;;;4978452;28;100072;-76
2023/06/06 14:07:28;;;;;;;14.70;6.38;;;;;;;;;;4983365;28;99294;-76
2023/06/06 14:09:55;;;;;;;16.63;5.80;;;;;;;;;;4984776;28;100174;-78
2023/06/06 14:12:21;;;;;;;16.77;5.13;;;;;;;;;;4985154;28;100114;-76
2023/06/06 14:14:48;;;;;;;8.15;5.65;;;;;;;;;;4981118;28;100814;-76
2023/06/06 14:17:16;;;;;;;9.68;5.45;;;;;;;;;;4987509;28;99038;-76
2023/06/06 14:19:50;;;;;;;6.43;5.43;;;;;;;;;;4991107;28;100081;-75
2023/06/06 14:24:48;;;;;;;6.50;5.10;;;;;;;;;;4988670;28;100280;-76
2023/06/06 14:27:14;;;;;;;12.88;6.07;;;;;;;;;;4987411;28;100389;-77
2023/06/06 14:29:41;;;;;;;13.57;5.88;;;;;;;;;;4983531;28;99281;-76
2023/06/06 14:32:11;;;;;;;14.13;5.57;;;;;;;;;;4986549;28;100213;-76
2023/06/06 14:34:38;;;;;;;10.85;5.85;;;;;;;;;;4978832;28;101439;-76
2023/06/06 14:37:04;;;;;;;10.45;6.53;;;;;;;;;;4987127;28;99337;-76
2023/06/06 14:39:31;;;;;;;14.57;5.68;;;;;;;;;;4985149;28;100947;-75